• Join FlightAware (Why Join?)
  • Login
  • US Flag 
01:05AM EDT


 

Airport Tracker/Info


-or-


 

Live Flight TrackerFlight Track Log ✈ N507PD ✈ 09-Aug-2013 ✈ KPWK - KALN

Flight Track Log - Related Links

Times and Time Zones

All times are in EDT time to prevent confusion due to time zone crossing. See the N507PD flight status page for this flight to view local times or setup timezone preferences in your user account.

Time Position Orientation Groundspeed Altitude Reporting Facility
EDT Latitude Longitude Course Direction KTS MPH feet Rate Location/Type
08:08PM 42.2000 -87.8000 62° Northeast 290 334 6,700  Level Chicago TRACON
08:10PM 42.1303 -87.7839 170° South 272 313 10,000 2,640 Climbing Chicago Center
08:11PM 42.0417 -87.8328 202° Southwest 286 329 13,000 2,520 Climbing Chicago Center
08:12PM 41.9644 -87.8753 202° Southwest 300 345 15,300 2,220 Climbing Chicago Center
08:13PM 41.6638 -88.2155 197° South  Level Estimated
08:13PM 41.8778 -87.8881 186° South 316 364 17,600  Level Chicago Center
08:14PM 41.7883 -87.8969 184° South 322 371 19,700 1,800 Climbing Chicago Center
08:15PM 41.7006 -87.9156 189° South 321 369 21,400 1,680 Climbing Chicago Center
08:16PM 41.5978 -87.9633 199° South 328 377 23,200 1,560 Climbing Chicago Center
08:17PM 41.5150 -88.0094 203° Southwest 324 373 24,700 1,320 Climbing Chicago Center
08:18PM 41.4436 -88.0550 206° Southwest 322 371 26,000 600 Climbing Chicago Center
08:19PM 41.3553 -88.1325 213° Southwest 320 368 26,000  Level Chicago Center
08:20PM 41.2750 -88.1975 211° Southwest 329 379 26,000  Level Chicago Center
08:21PM 41.1964 -88.2608 211° Southwest 331 381 26,000  Level Chicago Center
08:22PM 41.1189 -88.3228 211° Southwest 329 379 26,000  Level Chicago Center
08:23PM 41.0408 -88.3861 211° Southwest 330 380 26,000 360 Level Chicago Center
08:24PM 40.9483 -88.4603 211° Southwest 326 375 26,800 840 Climbing Chicago Center
08:25PM 40.8775 -88.5167 211° Southwest 304 350 27,800 540 Climbing Chicago Center
08:26PM 40.8044 -88.5753 211° Southwest 307 353 28,000 60 Climbing Chicago Center
08:27PM 40.7261 -88.6381 211° Southwest 325 374 28,000  Level Chicago Center
08:28PM 40.6431 -88.7025 210° Southwest 344 396 28,000  Level Chicago Center
08:29PM 40.5411 -88.7831 211° Southwest 357 411 28,000  Level Chicago Center
08:30PM 40.4656 -88.8419 211° Southwest 362 417 28,000  Level Chicago Center
08:31PM 40.3778 -88.9108 211° Southwest 365 420 28,000  Level Chicago Center
08:32PM 40.2719 -88.9922 210° Southwest 366 421 28,000  Level Chicago Center
08:33PM 40.1847 -89.0606 211° Southwest 366 421 28,000  Level Chicago Center
08:34PM 40.0967 -89.1292 211° Southwest 367 422 28,000  Level Chicago Center
08:35PM 40.0253 -89.1842 211° Southwest 366 421 28,000 -180 Level Kansas City Center
08:36PM 39.9403 -89.2492 210° Southwest 360 414 27,700 -900 Descending Kansas City Center
08:37PM 39.8525 -89.3161 210° Southwest 361 415 26,200 -1,560 Descending Kansas City Center
08:38PM 39.7647 -89.3850 211° Southwest 366 421 24,600 -1,440 Descending Kansas City Center
08:39PM 39.6761 -89.4517 210° Southwest 373 429 23,300 -1,860 Descending Kansas City Center
08:40PM 39.5900 -89.5178 211° Southwest 365 420 20,800 -2,520 Descending Kansas City Center
08:41PM 39.5064 -89.5800 210° Southwest 352 405 18,200 -2,760 Descending Kansas City Center
08:42PM 39.4081 -89.6567 211° Southwest 346 398 15,200 -2,700 Descending Kansas City Center
08:43PM 39.3239 -89.7192 210° Southwest 348 400 12,700 -2,460 Descending Kansas City Center
08:44PM 39.2472 -89.7781 211° Southwest 330 380 10,200 -2,520 Descending Kansas City Center
08:45PM 39.1683 -89.8378 210° Southwest 312 359 7,600 -2,400 Descending Kansas City Center
08:46PM 39.1011 -89.8881 210° Southwest 283 326 5,300 -1,380 Descending Kansas City Center
08:47PM 39.0239 -89.9189 197° South 288 331 4,800 -1,020 Descending Kansas City Center
08:49PM 38.9494 -89.9200 181° South 270 311 3,300 -1,320 Descending Kansas City Center
08:50PM 38.8886 -89.9433 197° South 263 303 2,200 -960 Descending Kansas City Center
08:51PM 38.8750 -89.9961 252° West 206 237 1,400 -840 Descending Kansas City Center
08:52PM 38.8897 -90.0369 295° West 154 177 500 -900 Descending Kansas City Center
08:54PM 38.8833 -90.0333 207° Southwest  Level FlightAware Approximate
09:01PM 38.8899 -90.0460 207° Southwest  Level Estimated